createdAt,value
2019-01-08T00:00:13.815Z,2.57
2019-01-08T00:02:46.178Z,3.37
2019-01-08T00:05:16.903Z,2.90
2019-01-08T00:07:47.706Z,2.93
2019-01-08T00:10:18.510Z,4.00
2019-01-08T00:12:49.306Z,3.33
2019-01-08T00:15:20.052Z,3.17
2019-01-08T00:17:50.831Z,3.40
2019-01-08T00:20:21.574Z,2.57
2019-01-08T00:22:52.341Z,3.07
2019-01-08T00:25:23.103Z,2.53
2019-01-08T00:27:53.844Z,2.83
2019-01-08T00:30:25.126Z,2.73
2019-01-08T00:32:56.470Z,3.03
2019-01-08T00:35:28.792Z,3.30
2019-01-08T00:37:59.466Z,3.03
2019-01-08T00:40:30.226Z,2.50
2019-01-08T00:43:01.015Z,3.93
2019-01-08T00:45:31.798Z,3.17
2019-01-08T00:48:02.543Z,2.93
2019-01-08T00:50:33.306Z,3.03
2019-01-08T00:53:04.041Z,2.57
2019-01-08T00:55:35.770Z,3.23
2019-01-08T00:58:06.493Z,3.10
2019-01-08T01:00:37.219Z,3.13
2019-01-08T01:03:08.086Z,3.43
2019-01-08T01:05:40.277Z,2.53
2019-01-08T01:08:11.064Z,5.37
2019-01-08T01:10:41.797Z,3.37
2019-01-08T01:13:12.589Z,3.30
2019-01-08T01:15:44.575Z,3.10
2019-01-08T01:18:15.395Z,3.40
2019-01-08T01:20:46.172Z,3.40
2019-01-08T01:23:18.510Z,4.33
2019-01-08T01:25:49.339Z,3.47
2019-01-08T01:28:20.059Z,3.57
2019-01-08T01:30:50.918Z,3.13
2019-01-08T01:33:21.606Z,3.57
2019-01-08T01:35:52.271Z,3.53
2019-01-08T01:38:22.967Z,3.17
2019-01-08T01:40:55.243Z,3.40
2019-01-08T01:43:25.934Z,3.63
2019-01-08T01:45:56.597Z,2.80
2019-01-08T01:48:27.291Z,3.40
2019-01-08T01:50:58.118Z,3.23
2019-01-08T02:09:14.992Z,4.00
2019-01-08T02:11:45.795Z,3.67
2019-01-08T02:14:16.584Z,3.77
2019-01-08T02:16:47.394Z,2.83
2019-01-08T02:19:18.162Z,3.80
2019-01-08T02:21:48.938Z,3.47
2019-01-08T02:24:19.706Z,4.20
2019-01-08T02:26:50.465Z,3.57
2019-01-08T02:29:21.373Z,3.37
2019-01-08T02:31:52.212Z,3.60
2019-01-08T02:34:23.084Z,3.37
2019-01-08T02:36:53.812Z,3.23
2019-01-08T02:39:24.579Z,3.97
2019-01-08T02:41:55.357Z,3.60
2019-01-08T02:44:26.204Z,3.90
2019-01-08T02:46:57.021Z,2.80
2019-01-08T02:49:27.695Z,3.40
2019-01-08T02:51:58.335Z,3.53
2019-01-08T02:54:29.138Z,3.27
2019-01-08T02:57:00.007Z,3.43
2019-01-08T02:59:30.716Z,3.23
2019-01-08T03:02:01.491Z,3.70
2019-01-08T03:04:32.193Z,3.50
2019-01-08T03:07:02.879Z,3.57
2019-01-08T03:09:38.271Z,4.50
2019-01-08T03:12:10.582Z,4.03
2019-01-08T03:14:41.517Z,3.87
2019-01-08T03:17:12.210Z,3.43
2019-01-08T03:19:42.924Z,3.97
2019-01-08T03:22:13.706Z,4.17
2019-01-08T03:24:44.842Z,3.33
2019-01-08T03:27:16.780Z,4.03
2019-01-08T03:29:47.491Z,3.47
2019-01-08T03:32:18.207Z,4.07
2019-01-08T03:34:48.967Z,3.30
2019-01-08T03:37:19.669Z,4.23
2019-01-08T03:39:50.313Z,4.47
2019-01-08T03:42:21.007Z,3.80
2019-01-08T03:44:52.133Z,3.70
2019-01-08T03:47:23.193Z,3.30
2019-01-08T03:49:53.934Z,4.23
2019-01-08T03:52:24.650Z,3.60
2019-01-08T03:54:55.551Z,3.63
2019-01-08T03:57:26.278Z,3.27
2019-01-08T03:59:57.104Z,3.27
2019-01-08T04:02:27.830Z,3.93
2019-01-08T04:04:58.496Z,4.07
2019-01-08T04:07:29.102Z,3.63
2019-01-08T04:09:59.821Z,3.00
2019-01-08T04:12:30.675Z,3.73
2019-01-08T04:15:01.317Z,3.70
2019-01-08T04:17:32.062Z,4.07
2019-01-08T04:20:02.825Z,3.63
2019-01-08T04:22:34.434Z,3.17
2019-01-08T04:25:05.934Z,3.77
2019-01-08T04:27:36.624Z,2.53
2019-01-08T04:30:08.104Z,4.07
2019-01-08T04:32:39.893Z,3.13
2019-01-08T04:35:10.775Z,4.03
2019-01-08T04:37:41.442Z,4.37
2019-01-08T04:40:12.342Z,4.60
2019-01-08T04:42:43.162Z,4.03
2019-01-08T04:45:14.853Z,3.47
2019-01-08T04:47:46.677Z,3.53
2019-01-08T04:50:17.309Z,3.97
2019-01-08T04:52:48.033Z,3.43
2019-01-08T04:55:18.762Z,3.57
2019-01-08T04:57:51.008Z,3.10
2019-01-08T05:00:22.738Z,3.60
2019-01-08T05:02:53.591Z,3.77
2019-01-08T05:05:25.121Z,3.83
2019-01-08T05:07:55.770Z,4.07
2019-01-08T05:10:26.566Z,3.03
2019-01-08T05:12:57.382Z,3.63
2019-01-08T05:15:28.199Z,3.83
2019-01-08T05:18:00.019Z,4.00
2019-01-08T05:20:30.675Z,3.50
2019-01-08T05:23:01.575Z,3.57
2019-01-08T05:25:32.383Z,3.27
2019-01-08T05:28:03.179Z,3.80
2019-01-08T05:30:33.912Z,3.23
2019-01-08T05:33:04.612Z,3.93
2019-01-08T05:35:35.268Z,3.30
2019-01-08T05:38:06.053Z,2.67
2019-01-08T05:40:36.694Z,2.13
2019-01-08T05:43:07.348Z,1.97
2019-01-08T05:45:38.094Z,2.10
2019-01-08T05:48:08.970Z,2.00
2019-01-08T05:50:39.726Z,2.87
2019-01-08T05:53:10.546Z,2.47
2019-01-08T05:55:41.374Z,2.00
2019-01-08T05:58:12.057Z,1.73
2019-01-08T06:00:42.960Z,1.70
2019-01-08T06:03:13.683Z,2.10
2019-01-08T06:05:44.362Z,1.70
2019-01-08T06:08:16.066Z,2.10
2019-01-08T06:10:47.387Z,3.67
2019-01-08T06:13:18.111Z,2.47
2019-01-08T06:15:49.496Z,1.93
2019-01-08T06:18:20.266Z,2.87
2019-01-08T06:20:51.004Z,1.97
2019-01-08T06:23:21.871Z,3.03
2019-01-08T06:25:52.592Z,3.87
2019-01-08T06:28:23.326Z,2.40
2019-01-08T06:30:54.254Z,2.70
2019-01-08T06:33:25.986Z,2.73
2019-01-08T06:35:56.804Z,2.07
2019-01-08T06:38:27.725Z,2.40
2019-01-08T06:40:58.602Z,2.90
2019-01-08T06:43:30.082Z,2.43
2019-01-08T06:46:01.026Z,3.20
2019-01-08T06:48:31.815Z,2.33
2019-01-08T06:51:02.642Z,3.40
2019-01-08T06:53:33.506Z,2.87
2019-01-08T06:56:04.308Z,3.13
2019-01-08T06:58:35.039Z,3.67
2019-01-08T07:01:05.746Z,2.60
2019-01-08T07:03:36.951Z,2.53
2019-01-08T07:06:09.385Z,3.43
2019-01-08T07:08:40.964Z,2.87
2019-01-08T07:11:11.694Z,3.80
2019-01-08T07:13:42.527Z,2.83
2019-01-08T07:16:13.257Z,3.17
2019-01-08T07:18:45.261Z,2.90
2019-01-08T07:21:16.350Z,2.80
2019-01-08T07:23:47.131Z,2.40
2019-01-08T07:26:17.918Z,2.60
2019-01-08T07:28:48.690Z,2.77
2019-01-08T07:31:20.169Z,2.80
2019-01-08T07:33:52.472Z,3.33
2019-01-08T07:36:24.898Z,2.70
2019-01-08T07:38:56.786Z,2.53
2019-01-08T07:41:28.664Z,3.10
2019-01-08T07:44:00.630Z,2.50
2019-01-08T07:46:32.600Z,3.70
2019-01-08T07:49:03.454Z,3.40
2019-01-08T07:51:34.783Z,3.50
2019-01-08T07:54:05.685Z,3.10
2019-01-08T07:56:36.760Z,3.30
2019-01-08T07:59:07.566Z,4.17
2019-01-08T08:01:39.222Z,3.20
2019-01-08T08:04:09.994Z,3.80
2019-01-08T08:06:40.973Z,3.70
2019-01-08T08:09:11.850Z,3.57
2019-01-08T08:11:42.577Z,3.87
2019-01-08T08:14:13.339Z,3.93
2019-01-08T08:16:44.108Z,4.33
2019-01-08T08:19:14.771Z,4.53
2019-01-08T08:21:45.496Z,3.93
2019-01-08T08:24:17.802Z,3.47
2019-01-08T08:26:49.617Z,3.53
2019-01-08T08:29:22.019Z,5.47
2019-01-08T08:31:55.882Z,4.23
2019-01-08T08:34:26.138Z,4.20
2019-01-08T08:37:00.537Z,3.73
2019-01-08T08:39:36.707Z,4.20
2019-01-08T08:42:34.116Z,4.13
2019-01-08T08:45:01.727Z,4.40
2019-01-08T08:47:45.157Z,3.80
2019-01-08T08:50:40.000Z,3.97
2019-01-08T08:53:27.963Z,4.67
2019-01-08T08:55:58.851Z,4.13
2019-01-08T08:58:31.202Z,3.60
2019-01-08T09:01:06.819Z,4.07
2019-01-08T09:03:34.710Z,4.13
2019-01-08T09:06:05.594Z,4.23
2019-01-08T09:08:39.135Z,3.90
2019-01-08T09:11:10.799Z,4.47
2019-01-08T09:13:47.369Z,3.97
2019-01-08T09:16:24.188Z,3.53
2019-01-08T09:18:58.678Z,4.17
2019-01-08T09:21:32.544Z,3.43
2019-01-08T09:24:04.915Z,4.43
2019-01-08T09:26:35.767Z,3.93
2019-01-08T09:29:08.767Z,4.10
2019-01-08T09:31:42.269Z,4.10
2019-01-08T09:34:13.147Z,3.50
2019-01-08T09:39:43.533Z,5.03
2019-01-08T09:42:14.477Z,5.63
2019-01-08T09:44:45.306Z,4.60
2019-01-08T09:47:16.187Z,4.40
2019-01-08T09:49:46.985Z,4.33
2019-01-08T09:52:17.738Z,5.47
2019-01-08T09:54:52.355Z,4.30
2019-01-08T09:57:23.193Z,5.00
2019-01-08T10:00:08.959Z,4.60
2019-01-08T10:02:43.149Z,5.53
2019-01-08T10:05:15.619Z,4.93
2019-01-08T10:07:46.511Z,5.37
2019-01-08T10:10:17.266Z,5.20
2019-01-08T10:12:48.156Z,4.70
2019-01-08T10:15:22.111Z,5.33
2019-01-08T10:17:52.786Z,4.00
2019-01-08T10:20:23.572Z,4.80
2019-01-08T10:22:54.349Z,4.53
2019-01-08T10:25:25.114Z,3.83
2019-01-08T10:27:55.938Z,4.07
2019-01-08T10:30:26.777Z,5.57
2019-01-08T10:32:57.459Z,5.27
2019-01-08T10:35:28.245Z,5.27
2019-01-08T10:37:59.173Z,5.50
2019-01-08T10:40:29.903Z,5.03
2019-01-08T10:43:02.212Z,4.57
2019-01-08T10:45:34.498Z,4.33
2019-01-08T10:48:05.502Z,4.77
2019-01-08T10:50:36.458Z,5.00
2019-01-08T10:53:08.813Z,4.53
2019-01-08T10:55:41.214Z,4.70
2019-01-08T10:58:12.404Z,4.87
2019-01-08T11:00:43.370Z,5.23
2019-01-08T11:03:14.147Z,3.90
2019-01-08T11:05:45.046Z,4.67
2019-01-08T11:08:15.811Z,3.50
2019-01-08T11:10:46.634Z,5.03
2019-01-08T11:13:17.379Z,3.37
2019-01-08T11:15:48.112Z,5.87
2019-01-08T11:18:18.982Z,3.77
2019-01-08T11:20:49.758Z,2.83
2019-01-08T11:23:20.464Z,4.40
2019-01-08T11:25:52.769Z,4.00
2019-01-08T11:28:23.478Z,3.77
2019-01-08T11:30:54.467Z,4.60
2019-01-08T11:33:25.289Z,3.27
2019-01-08T11:35:56.042Z,4.43
2019-01-08T11:38:26.854Z,3.37
2019-01-08T11:40:57.703Z,4.20
2019-01-08T11:43:28.698Z,3.77
2019-01-08T11:45:59.513Z,4.03
2019-01-08T11:48:30.386Z,3.53
2019-01-08T11:51:01.202Z,3.40
2019-01-08T11:53:32.065Z,3.43
2019-01-08T11:56:02.795Z,3.37
2019-01-08T11:58:33.530Z,3.00
2019-01-08T12:01:04.315Z,3.80
2019-01-08T12:03:35.040Z,3.37
2019-01-08T12:06:05.906Z,3.30
2019-01-08T12:08:36.590Z,3.27
2019-01-08T12:11:07.337Z,3.93
2019-01-08T12:13:38.116Z,3.07
2019-01-08T12:16:08.890Z,4.03
2019-01-08T12:18:39.783Z,3.37
2019-01-08T12:21:12.063Z,3.90
2019-01-08T12:23:42.854Z,3.93
2019-01-08T12:26:13.626Z,3.27
2019-01-08T12:28:44.406Z,4.13
2019-01-08T12:31:15.213Z,3.30
2019-01-08T12:33:45.935Z,3.60
2019-01-08T12:36:16.714Z,3.00
2019-01-08T12:38:47.491Z,3.13
2019-01-08T12:41:18.249Z,4.00
2019-01-08T12:43:49.830Z,3.27
2019-01-08T12:46:20.607Z,3.70
2019-01-08T12:48:51.782Z,4.33
2019-01-08T12:51:22.634Z,4.67
2019-01-08T12:53:53.637Z,3.73
2019-01-08T12:56:24.405Z,4.20
2019-01-08T12:58:55.436Z,3.57
2019-01-08T13:01:26.354Z,4.03
2019-01-08T13:03:57.087Z,4.57
2019-01-08T13:06:27.871Z,4.10
2019-01-08T13:08:58.668Z,3.83
2019-01-08T13:11:29.390Z,3.87
2019-01-08T13:14:00.273Z,3.30
2019-01-08T13:16:30.982Z,3.90
2019-01-08T13:19:01.751Z,2.20
2019-01-08T13:21:32.499Z,3.10
2019-01-08T13:24:03.219Z,3.10
2019-01-08T13:26:34.962Z,3.00
2019-01-08T13:29:05.717Z,3.47
2019-01-08T13:31:36.463Z,3.63
2019-01-08T13:34:07.219Z,3.20
2019-01-08T13:36:37.990Z,3.97
2019-01-08T13:39:08.785Z,3.63
2019-01-08T13:41:39.445Z,2.23
2019-01-08T13:44:11.645Z,3.77
2019-01-08T13:46:42.448Z,3.33
2019-01-08T13:49:14.216Z,3.23
2019-01-08T13:51:45.949Z,3.53
2019-01-08T13:54:16.711Z,2.90
2019-01-08T13:56:47.487Z,3.87
2019-01-08T13:59:18.265Z,2.80
2019-01-08T14:01:49.051Z,2.80
2019-01-08T14:04:20.910Z,2.20
2019-01-08T14:06:51.574Z,2.97
2019-01-08T14:09:22.338Z,2.60
2019-01-08T14:11:53.079Z,3.17
2019-01-08T14:14:23.882Z,3.30
2019-01-08T14:16:54.526Z,2.83
2019-01-08T14:19:25.295Z,3.07
2019-01-08T14:21:56.194Z,2.57
2019-01-08T14:24:26.860Z,3.03
2019-01-08T14:26:57.615Z,2.60
2019-01-08T14:29:28.392Z,2.70
2019-01-08T14:31:59.150Z,2.97
2019-01-08T14:34:30.930Z,2.67
2019-01-08T14:37:01.735Z,2.77
2019-01-08T14:39:32.563Z,3.13
2019-01-08T14:42:06.646Z,2.73
2019-01-08T14:44:37.896Z,2.93
2019-01-08T14:47:12.899Z,2.50
2019-01-08T14:49:49.474Z,3.17
2019-01-08T14:52:21.565Z,3.77
2019-01-08T14:54:52.399Z,3.20
2019-01-08T14:57:23.164Z,2.80
2019-01-08T14:59:54.397Z,3.43
2019-01-08T15:02:25.259Z,2.53
2019-01-08T15:04:57.990Z,3.37
2019-01-08T15:07:28.576Z,3.00
2019-01-08T15:09:59.370Z,2.50
2019-01-08T15:12:30.308Z,2.70
2019-01-08T15:15:01.117Z,2.90
2019-01-08T15:17:32.946Z,2.37
2019-01-08T15:20:03.743Z,3.00
2019-01-08T15:22:34.414Z,1.93
2019-01-08T15:25:05.462Z,2.63
2019-01-08T15:27:36.267Z,2.63
2019-01-08T15:30:09.121Z,3.17
2019-01-08T15:32:40.160Z,2.83
2019-01-08T15:35:10.908Z,2.77
2019-01-08T15:37:42.071Z,3.57
2019-01-08T15:40:12.854Z,3.30
2019-01-08T15:42:43.728Z,3.23
2019-01-08T15:45:16.984Z,3.00
2019-01-08T15:47:47.762Z,3.30
2019-01-08T15:50:18.620Z,2.50
2019-01-08T15:52:49.474Z,2.97
2019-01-08T15:55:26.212Z,2.47
2019-01-08T15:57:57.081Z,3.80
2019-01-08T16:00:28.778Z,3.00
2019-01-08T16:03:07.101Z,2.80
2019-01-08T16:05:32.779Z,2.97
2019-01-08T16:08:03.966Z,3.13
2019-01-08T16:10:34.753Z,2.93
2019-01-08T16:13:07.696Z,2.67
2019-01-08T16:15:39.812Z,3.17
2019-01-08T16:18:12.431Z,2.83
2019-01-08T16:20:43.598Z,2.70
2019-01-08T16:23:14.393Z,2.20
2019-01-08T16:29:42.859Z,2.50
2019-01-08T16:36:20.643Z,2.80
2019-01-08T16:42:32.574Z,2.53
2019-01-08T16:45:03.467Z,3.03
2019-01-08T16:47:35.273Z,2.87
2019-01-08T16:50:06.571Z,3.00
2019-01-08T16:52:37.455Z,2.97
2019-01-08T16:55:08.590Z,2.30
2019-01-08T16:57:39.373Z,2.87
2019-01-08T17:00:11.063Z,2.53
2019-01-08T17:02:42.950Z,2.77
2019-01-08T17:05:16.601Z,2.90
2019-01-08T17:07:47.373Z,1.77
2019-01-08T17:10:18.143Z,2.77
2019-01-08T17:12:48.926Z,2.57
2019-01-08T17:15:19.716Z,3.40
2019-01-08T17:17:52.234Z,3.20
2019-01-08T17:20:23.030Z,2.93
2019-01-08T17:22:53.796Z,2.23
2019-01-08T17:25:24.550Z,2.40
2019-01-08T17:27:55.247Z,3.33
2019-01-08T17:30:26.054Z,2.97
2019-01-08T17:32:56.847Z,2.67
2019-01-08T17:35:27.734Z,3.23
2019-01-08T17:37:58.450Z,2.80
2019-01-08T17:40:30.293Z,2.87
2019-01-08T17:43:01.074Z,3.33
2019-01-08T17:45:31.863Z,3.50
2019-01-08T17:48:03.890Z,3.40
2019-01-08T17:50:35.738Z,2.97
2019-01-08T17:53:06.734Z,2.40
2019-01-08T17:55:39.086Z,3.47
2019-01-08T17:58:48.598Z,3.43
2019-01-08T18:01:25.409Z,2.87
2019-01-08T18:03:56.222Z,2.57
2019-01-08T18:06:27.454Z,3.33
2019-01-08T18:08:58.501Z,2.67
2019-01-08T18:11:31.005Z,2.97
2019-01-08T18:14:01.806Z,3.20
2019-01-08T18:16:32.599Z,3.20
2019-01-08T18:19:03.331Z,3.13
2019-01-08T18:21:34.154Z,3.87
2019-01-08T18:24:06.005Z,2.80
2019-01-08T18:26:36.787Z,2.73
2019-01-08T18:29:07.604Z,3.20
2019-01-08T18:31:38.347Z,3.33
2019-01-08T18:34:09.125Z,2.60
2019-01-08T18:36:39.866Z,3.50
2019-01-08T18:39:12.383Z,2.47
2019-01-08T18:41:43.149Z,2.43
2019-01-08T18:44:13.988Z,2.20
2019-01-08T18:46:44.789Z,3.30
2019-01-08T18:49:15.655Z,3.07
2019-01-08T18:51:46.518Z,3.10
2019-01-08T18:54:17.366Z,2.80
2019-01-08T18:56:57.679Z,2.70
2019-01-08T18:59:28.431Z,2.83
2019-01-08T19:01:59.191Z,3.13
2019-01-08T19:04:29.856Z,3.43
2019-01-08T19:07:00.739Z,3.20
2019-01-08T19:09:36.139Z,2.67
2019-01-08T19:12:15.911Z,3.07
2019-01-08T19:14:46.650Z,3.33
2019-01-08T19:17:17.425Z,3.03
2019-01-08T19:19:49.108Z,2.53
2019-01-08T19:22:21.952Z,2.87
2019-01-08T19:24:52.670Z,2.77
2019-01-08T19:27:23.643Z,2.27
2019-01-08T19:29:54.487Z,2.00
2019-01-08T19:32:26.543Z,2.13
2019-01-08T19:34:57.341Z,1.80
2019-01-08T19:37:28.293Z,1.73
2019-01-08T19:39:59.035Z,2.07
2019-01-08T19:42:31.305Z,1.70
2019-01-08T19:45:02.359Z,2.37
2019-01-08T19:47:33.038Z,2.43
2019-01-08T19:50:03.910Z,2.87
2019-01-08T19:52:35.616Z,2.83
2019-01-08T19:55:06.550Z,3.10
2019-01-08T19:57:38.008Z,2.87
2019-01-08T20:00:11.596Z,3.20
2019-01-08T20:02:43.900Z,2.70
2019-01-08T20:05:14.704Z,2.67
2019-01-08T20:07:45.546Z,3.33
2019-01-08T20:10:16.428Z,3.37
2019-01-08T20:13:03.413Z,4.30
2019-01-08T20:15:34.144Z,4.00
2019-01-08T20:18:04.962Z,3.13
2019-01-08T20:20:35.715Z,3.70
2019-01-08T20:23:06.471Z,3.17
2019-01-08T20:25:37.266Z,3.27
2019-01-08T20:28:08.046Z,3.23
2019-01-08T20:30:38.819Z,3.50
2019-01-08T20:33:09.605Z,3.40
2019-01-08T20:35:40.496Z,3.77
2019-01-08T20:38:11.783Z,3.80
2019-01-08T20:40:42.701Z,3.27
2019-01-08T20:43:15.054Z,2.87
2019-01-08T20:45:45.826Z,2.10
2019-01-08T20:48:16.860Z,2.67
2019-01-08T20:50:47.622Z,2.17
2019-01-08T20:53:19.982Z,2.90
2019-01-08T20:55:50.803Z,2.47
2019-01-08T20:58:27.562Z,2.23
2019-01-08T21:00:54.108Z,2.67
2019-01-08T21:03:25.093Z,2.40
2019-01-08T21:05:55.820Z,3.53
2019-01-08T21:08:26.941Z,2.50
2019-01-08T21:10:57.681Z,3.73
2019-01-08T21:13:40.548Z,3.10
2019-01-08T21:16:11.347Z,3.67
2019-01-08T21:18:42.219Z,2.97
2019-01-08T21:21:12.978Z,2.60
2019-01-08T21:23:43.742Z,3.00
2019-01-08T21:26:14.574Z,2.83
2019-01-08T21:28:45.258Z,3.27
2019-01-08T21:31:16.010Z,3.67
2019-01-08T21:33:46.676Z,2.93
2019-01-08T21:36:18.799Z,2.93
2019-01-08T21:38:49.532Z,2.30
2019-01-08T21:41:20.311Z,2.70
2019-01-08T21:43:51.131Z,2.53
2019-01-08T21:46:21.973Z,2.23
2019-01-08T21:48:52.786Z,2.20
2019-01-08T21:51:23.533Z,2.20
2019-01-08T21:53:55.848Z,1.87
2019-01-08T21:56:26.688Z,1.50
2019-01-08T21:58:57.595Z,1.77
2019-01-08T22:01:29.974Z,2.20
2019-01-08T22:04:00.746Z,1.77
2019-01-08T22:06:32.629Z,2.00
2019-01-08T22:09:03.605Z,1.97
2019-01-08T22:11:34.370Z,2.20
2019-01-08T22:14:05.156Z,2.33
2019-01-08T22:16:35.860Z,3.77
2019-01-08T22:19:06.616Z,2.83
2019-01-08T22:21:38.437Z,3.20
2019-01-08T22:24:09.512Z,3.45
2019-01-08T22:26:40.291Z,3.23
2019-01-08T22:29:11.077Z,3.00
2019-01-08T22:31:41.838Z,3.20
2019-01-08T22:34:12.609Z,3.67
2019-01-08T22:36:45.497Z,2.60
2019-01-08T22:39:16.372Z,3.17
2019-01-08T22:41:47.243Z,3.13
2019-01-08T22:44:19.587Z,2.50
2019-01-08T22:46:50.381Z,2.50
2019-01-08T22:49:21.164Z,2.77
2019-01-08T22:51:52.044Z,3.10
2019-01-08T22:54:22.752Z,2.00
2019-01-08T22:56:53.509Z,2.27
2019-01-08T22:59:24.466Z,1.77
2019-01-08T23:01:55.555Z,2.43
2019-01-08T23:04:26.397Z,2.70
2019-01-08T23:06:57.194Z,2.57
2019-01-08T23:09:29.234Z,2.27
2019-01-08T23:11:59.981Z,2.07
2019-01-08T23:14:30.656Z,1.97
2019-01-08T23:17:01.369Z,2.23
2019-01-08T23:19:33.775Z,2.43
2019-01-08T23:22:04.543Z,1.90
2019-01-08T23:24:35.315Z,2.30
2019-01-08T23:27:06.059Z,1.70
2019-01-08T23:29:37.037Z,2.10
2019-01-08T23:32:07.806Z,1.37
2019-01-08T23:34:39.531Z,1.90
2019-01-08T23:37:10.269Z,2.53
2019-01-08T23:39:41.049Z,1.57
2019-01-08T23:42:13.371Z,1.60
2019-01-08T23:44:44.259Z,0.90
2019-01-08T23:47:15.067Z,1.40
2019-01-08T23:49:45.749Z,0.93
2019-01-08T23:52:27.684Z,1.17
2019-01-08T23:55:00.371Z,1.17
2019-01-08T23:57:33.319Z,1.07
